createdAt,value
2019-02-12T00:01:35.023Z,-21176.89
2019-02-12T00:04:03.310Z,-21161.13
2019-02-12T00:06:33.611Z,-21160.13
2019-02-12T00:09:01.951Z,-21168.09
2019-02-12T00:11:30.292Z,-21164.25
2019-02-12T00:13:58.541Z,-21175.05
2019-02-12T00:16:26.867Z,-21176.89
2019-02-12T00:18:55.164Z,-21176.18
2019-02-12T00:21:23.438Z,-21166.95
2019-02-12T00:23:51.742Z,-21170.64
2019-02-12T00:26:20.130Z,-21172.92
2019-02-12T00:28:48.383Z,-21155.58
2019-02-12T00:31:16.643Z,-21174.62
2019-02-12T00:33:44.906Z,-21195.21
2019-02-12T00:36:13.219Z,-21183.43
2019-02-12T00:38:41.475Z,-21187.26
2019-02-12T00:41:09.751Z,-21195.77
2019-02-12T00:43:38.029Z,-21197.91
2019-02-12T00:46:06.452Z,-21191.95
2019-02-12T00:48:34.706Z,-21180.02
2019-02-12T00:51:17.538Z,-21193.37
2019-02-12T00:53:46.005Z,-21183.00
2019-02-12T00:56:14.289Z,-21200.88
2019-02-12T00:58:42.641Z,-21194.50
2019-02-12T01:01:10.915Z,-21203.86
2019-02-12T01:03:39.316Z,-21191.52
2019-02-12T01:06:07.569Z,-21192.23
2019-02-12T01:08:35.876Z,-21182.29
2019-02-12T01:11:04.153Z,-21188.68
2019-02-12T01:13:32.553Z,-21192.23
2019-02-12T01:16:00.917Z,-21221.30
2019-02-12T01:18:29.275Z,-21198.33
2019-02-12T01:20:57.690Z,-21204.00
2019-02-12T01:23:25.953Z,-21173.20
2019-02-12T01:25:54.297Z,-21189.82
2019-02-12T01:28:22.620Z,-21157.86
2019-02-12T01:30:50.877Z,-21178.17
2019-02-12T01:33:19.168Z,-21195.07
2019-02-12T01:35:47.440Z,-21175.19
2019-02-12T01:38:15.685Z,-21205.57
2019-02-12T01:40:45.736Z,-21199.32
2019-02-12T01:43:14.118Z,-21203.86
2019-02-12T01:45:42.388Z,-21193.37
2019-02-12T01:48:10.734Z,-21183.00
2019-02-12T01:50:39.007Z,-21170.93
2019-02-12T01:53:07.292Z,-21184.42
2019-02-12T01:55:35.570Z,-21181.73
2019-02-12T01:58:03.870Z,-21182.29
2019-02-12T02:00:32.125Z,-21175.75
2019-02-12T02:03:00.403Z,-21183.86
2019-02-12T02:05:28.676Z,-21197.62
2019-02-12T02:07:56.955Z,-21188.40
2019-02-12T02:10:25.240Z,-21197.62
2019-02-12T02:12:53.495Z,-21195.21
2019-02-12T02:15:21.757Z,-21174.05
2019-02-12T02:17:50.028Z,-21175.61
2019-02-12T02:20:18.355Z,-21204.15
2019-02-12T02:22:46.633Z,-21198.61
2019-02-12T02:25:14.905Z,-21213.79
2019-02-12T02:27:43.183Z,-21240.86
2019-02-12T02:30:14.065Z,-21234.63
2019-02-12T02:32:42.418Z,-21237.46
2019-02-12T02:35:10.715Z,-21211.80
2019-02-12T02:37:39.002Z,-21227.96
2019-02-12T02:40:09.414Z,-21221.02
2019-02-12T02:42:37.872Z,-21208.69
2019-02-12T02:45:09.150Z,-21213.79
2019-02-12T02:47:37.454Z,-21203.02
2019-02-12T02:50:08.054Z,-21190.81
2019-02-12T02:52:36.338Z,-21235.90
2019-02-12T02:55:07.100Z,-21211.52
2019-02-12T02:57:35.379Z,-21216.34
2019-02-12T03:00:06.311Z,-21197.05
2019-02-12T03:02:34.545Z,-21195.63
2019-02-12T03:05:02.821Z,-21184.00
2019-02-12T03:07:31.076Z,-21186.84
2019-02-12T03:09:59.381Z,-21194.21
2019-02-12T03:12:27.630Z,-21172.92
2019-02-12T03:14:55.904Z,-21172.63
2019-02-12T03:17:24.172Z,-21206.27
2019-02-12T03:19:52.445Z,-21188.82
2019-02-12T03:22:20.709Z,-21191.38
2019-02-12T03:24:48.972Z,-21189.96
2019-02-12T03:27:17.265Z,-21203.86
2019-02-12T03:29:45.553Z,-21195.63
2019-02-12T03:32:13.822Z,-21170.93
2019-02-12T03:34:42.100Z,-21175.19
2019-02-12T03:37:10.352Z,-21178.31
2019-02-12T03:39:40.195Z,-21184.00
2019-02-12T03:42:08.473Z,-21208.96
2019-02-12T03:44:36.711Z,-21202.30
2019-02-12T03:47:05.002Z,-21196.49
2019-02-12T03:49:33.259Z,-21192.94
2019-02-12T03:52:01.560Z,-21170.50
2019-02-12T03:54:29.875Z,-21201.31
2019-02-12T03:56:58.134Z,-21220.31
2019-02-12T03:59:26.421Z,-21227.12
2019-02-12T04:01:54.687Z,-21210.81
2019-02-12T04:04:22.989Z,-21210.10
2019-02-12T04:06:51.239Z,-21195.07
2019-02-12T04:09:19.512Z,-21181.15
2019-02-12T04:11:47.794Z,-21194.78
2019-02-12T04:14:16.072Z,-21186.70
2019-02-12T04:16:44.331Z,-21184.85
2019-02-12T04:19:12.589Z,-21184.99
2019-02-12T04:21:40.875Z,-21183.86
2019-02-12T04:24:09.150Z,-21185.27
2019-02-12T04:26:37.414Z,-21199.89
2019-02-12T04:29:05.703Z,-21180.59
2019-02-12T04:31:33.990Z,-21183.86
2019-02-12T04:34:02.251Z,-21197.05
2019-02-12T04:36:30.548Z,-21197.62
2019-02-12T04:38:58.889Z,-21184.28
2019-02-12T04:41:27.146Z,-21210.39
2019-02-12T04:43:55.449Z,-21218.04
2019-02-12T04:46:23.734Z,-21212.80
2019-02-12T04:48:52.043Z,-21206.98
2019-02-12T04:51:20.310Z,-21222.16
2019-02-12T04:53:48.573Z,-21193.79
2019-02-12T04:56:16.845Z,-21219.46
2019-02-12T04:58:45.129Z,-21211.38
2019-02-12T05:01:13.403Z,-21216.34
2019-02-12T05:03:41.686Z,-21198.47
2019-02-12T05:06:09.964Z,-21173.77
2019-02-12T05:09:07.224Z,-21186.84
2019-02-12T05:11:35.510Z,-21197.91
2019-02-12T05:14:03.792Z,-21163.40
2019-02-12T05:16:32.047Z,-21205.71
2019-02-12T05:19:00.347Z,-21201.59
2019-02-12T05:21:28.625Z,-21195.35
2019-02-12T05:23:59.039Z,-21210.25
2019-02-12T05:26:26.883Z,-21196.49
2019-02-12T05:28:55.156Z,-21191.95
2019-02-12T05:31:23.422Z,-21199.61
2019-02-12T05:33:51.699Z,-21182.86
2019-02-12T05:36:19.998Z,-21196.63
2019-02-12T05:38:48.271Z,-21200.04
2019-02-12T05:41:16.551Z,-21169.37
2019-02-12T05:43:44.823Z,-21155.86
2019-02-12T05:46:13.099Z,-21160.41
2019-02-12T05:48:41.376Z,-21191.66
2019-02-12T05:51:09.633Z,-21213.08
2019-02-12T05:53:37.897Z,-21174.76
2019-02-12T05:56:06.175Z,-21192.37
2019-02-12T05:58:34.441Z,-21191.95
2019-02-12T06:01:02.759Z,-21224.85
2019-02-12T06:03:31.033Z,-21190.95
2019-02-12T06:05:59.306Z,-21189.39
2019-02-12T06:08:27.632Z,-21182.01
2019-02-12T06:10:55.921Z,-21189.67
2019-02-12T06:13:24.189Z,-21179.59
2019-02-12T06:15:52.535Z,-21205.57
2019-02-12T06:18:20.786Z,-21181.44
2019-02-12T06:20:49.050Z,-21180.73
2019-02-12T06:23:17.357Z,-21169.23
2019-02-12T06:25:45.628Z,-21182.86
2019-02-12T06:28:13.897Z,-21174.91
2019-02-12T06:30:43.909Z,-21170.93
2019-02-12T06:33:12.191Z,-21189.39
2019-02-12T06:35:40.553Z,-21174.91
2019-02-12T06:38:08.808Z,-21192.09
2019-02-12T06:40:37.089Z,-21188.68
2019-02-12T06:43:05.352Z,-21189.82
2019-02-12T06:45:33.637Z,-21180.16
2019-02-12T06:48:01.905Z,-21185.13
2019-02-12T06:50:30.183Z,-21187.26
2019-02-12T06:52:58.450Z,-21167.52
2019-02-12T06:55:26.735Z,-21195.49
2019-02-12T06:57:55.010Z,-21185.27
2019-02-12T07:00:23.297Z,-21206.27
2019-02-12T07:03:19.867Z,-21202.30
2019-02-12T07:05:57.275Z,-21218.18
2019-02-12T07:08:45.985Z,-21207.83
2019-02-12T07:11:41.296Z,-21183.00
2019-02-12T07:14:33.313Z,-21183.29
2019-02-12T07:17:13.540Z,-21194.64
2019-02-12T07:19:57.234Z,-21207.13
2019-02-12T07:22:37.348Z,-21197.34
2019-02-12T07:25:27.077Z,-21186.41
2019-02-12T07:28:07.104Z,-21180.30
2019-02-12T07:30:59.430Z,-21183.14
2019-02-12T07:33:45.409Z,-21184.14
2019-02-12T07:36:37.750Z,-21191.95
2019-02-12T07:39:23.910Z,-21211.95
2019-02-12T07:42:13.539Z,-21175.33
2019-02-12T07:44:44.992Z,-21151.46
2019-02-12T07:47:28.487Z,-21165.68
2019-02-12T07:50:16.461Z,-21138.10
2019-02-12T07:53:05.915Z,-21137.24
2019-02-12T07:55:46.155Z,-21192.94
2019-02-12T07:58:37.050Z,-21187.69
2019-02-12T08:01:30.483Z,-21185.70
2019-02-12T08:04:13.721Z,-21202.87
2019-02-12T08:06:54.054Z,-21204.00
2019-02-12T08:09:41.738Z,-21152.46
2019-02-12T08:12:29.413Z,-21160.41
2019-02-12T08:15:06.857Z,-21187.12
2019-02-12T08:17:41.507Z,-21200.60
2019-02-12T08:20:15.764Z,-21180.30
2019-02-12T08:23:12.922Z,-21194.50
2019-02-12T08:25:56.235Z,-21174.34
2019-02-12T08:28:30.221Z,-21187.40
2019-02-12T08:31:01.687Z,-21208.54
2019-02-12T08:34:04.439Z,-21195.77
2019-02-12T08:36:38.744Z,-21202.44
2019-02-12T08:39:13.119Z,-21217.90
2019-02-12T08:41:44.557Z,-21204.29
2019-02-12T08:44:37.123Z,-21223.29
2019-02-12T08:47:35.855Z,-21216.34
2019-02-12T08:50:26.987Z,-21183.71
2019-02-12T08:53:07.600Z,-21225.13
2019-02-12T08:55:58.868Z,-21202.73
2019-02-12T08:58:33.155Z,-21193.65
2019-02-12T09:01:14.294Z,-21200.46
2019-02-12T09:03:48.344Z,-21206.55
2019-02-12T09:06:22.706Z,-21206.13
2019-02-12T09:08:59.728Z,-21234.48
2019-02-12T09:11:36.502Z,-21219.74
2019-02-12T09:14:16.806Z,-21225.98
2019-02-12T09:17:00.139Z,-21205.57
2019-02-12T09:19:37.545Z,-21227.82
2019-02-12T09:22:17.756Z,-21221.02
2019-02-12T09:25:00.888Z,-21235.34
2019-02-12T09:27:41.371Z,-21228.68
2019-02-12T09:30:27.209Z,-21227.12
2019-02-12T09:33:30.656Z,-21257.00
2019-02-12T09:36:07.653Z,-21209.82
2019-02-12T09:38:47.938Z,-21193.79
2019-02-12T09:41:25.127Z,-21185.27
2019-02-12T09:44:42.268Z,-21186.84
2019-02-12T09:47:36.180Z,-21172.63
2019-02-12T09:50:22.434Z,-21191.24
2019-02-12T09:53:10.218Z,-21205.14
2019-02-12T09:55:44.534Z,-21191.52
2019-02-12T09:58:47.975Z,-21193.08
2019-02-12T10:01:28.383Z,-21196.20
2019-02-12T10:04:16.309Z,-21195.49
2019-02-12T10:06:59.876Z,-21220.31
2019-02-12T10:09:55.389Z,-21190.95
2019-02-12T10:12:45.287Z,-21200.46
2019-02-12T10:15:22.989Z,-21215.63
2019-02-12T10:18:09.444Z,-21214.07
2019-02-12T10:20:43.289Z,-21197.34
2019-02-12T10:23:17.215Z,-21199.18
2019-02-12T10:25:46.883Z,-21191.95
2019-02-12T10:28:36.516Z,-21215.78
2019-02-12T10:31:07.966Z,-21241.43
2019-02-12T10:33:36.235Z,-21225.27
2019-02-12T10:36:04.563Z,-21242.13
2019-02-12T10:38:41.370Z,-21238.59
2019-02-12T10:41:09.870Z,-21263.80
2019-02-12T10:43:38.142Z,-21251.20
2019-02-12T10:46:06.421Z,-21240.57
2019-02-12T10:48:34.697Z,-21236.33
2019-02-12T10:51:02.954Z,-21227.26
2019-02-12T10:53:31.243Z,-21207.97
2019-02-12T10:55:59.515Z,-21208.12
2019-02-12T10:58:27.784Z,-21192.37
2019-02-12T11:00:56.073Z,-21206.55
2019-02-12T11:03:24.338Z,-21202.59
2019-02-12T11:05:52.613Z,-21204.29
2019-02-12T11:08:20.916Z,-21233.78
2019-02-12T11:10:49.155Z,-21203.58
2019-02-12T11:13:17.467Z,-21211.09
2019-02-12T11:15:45.722Z,-21223.71
2019-02-12T11:18:14.015Z,-21198.33
2019-02-12T11:20:42.288Z,-21215.06
2019-02-12T11:23:11.047Z,-21237.32
2019-02-12T11:25:39.404Z,-21236.75
2019-02-12T11:28:07.675Z,-21246.38
2019-02-12T11:30:35.969Z,-21224.42
2019-02-12T11:33:04.328Z,-21205.00
2019-02-12T11:35:32.586Z,-21208.69
2019-02-12T11:38:00.846Z,-21211.52
2019-02-12T11:40:29.126Z,-21214.64
2019-02-12T11:42:57.390Z,-21213.22
2019-02-12T11:45:25.674Z,-21198.61
2019-02-12T11:47:53.937Z,-21194.21
2019-02-12T11:50:22.211Z,-21214.92
2019-02-12T11:52:50.451Z,-21210.10
2019-02-12T11:55:18.722Z,-21238.31
2019-02-12T11:57:47.001Z,-21263.51
2019-02-12T12:00:18.040Z,-21226.27
2019-02-12T12:02:46.295Z,-21241.14
2019-02-12T12:05:14.666Z,-21265.35
2019-02-12T12:07:42.960Z,-21235.90
2019-02-12T12:10:11.709Z,-21225.70
2019-02-12T12:12:40.005Z,-21239.02
2019-02-12T12:15:13.170Z,-21243.55
2019-02-12T12:17:41.451Z,-21215.92
2019-02-12T12:20:14.664Z,-21233.92
2019-02-12T12:22:42.923Z,-21249.35
2019-02-12T12:25:12.680Z,-21229.81
2019-02-12T12:27:40.971Z,-21223.01
2019-02-12T12:30:13.876Z,-21255.30
2019-02-12T12:32:42.152Z,-21218.89
2019-02-12T12:35:11.581Z,-21241.99
2019-02-12T12:37:39.965Z,-21267.33
2019-02-12T12:40:12.432Z,-21286.98
2019-02-12T12:42:40.710Z,-21255.73
2019-02-12T12:45:13.799Z,-21239.02
2019-02-12T12:47:42.134Z,-21235.48
2019-02-12T12:50:13.731Z,-21241.85
2019-02-12T12:52:42.079Z,-21280.20
2019-02-12T12:55:10.893Z,-21240.71
2019-02-12T12:57:42.077Z,-21222.30
2019-02-12T13:00:12.732Z,-21258.56
2019-02-12T13:02:41.565Z,-21284.30
2019-02-12T13:05:11.120Z,-21285.99
2019-02-12T13:07:39.449Z,-21267.90
2019-02-12T13:10:11.061Z,-21258.70
2019-02-12T13:12:39.329Z,-21248.36
2019-02-12T13:15:10.389Z,-21281.75
2019-02-12T13:17:38.720Z,-21296.31
2019-02-12T13:20:13.097Z,-21334.43
2019-02-12T13:22:41.380Z,-21347.83
2019-02-12T13:25:12.160Z,-21329.49
2019-02-12T13:27:43.263Z,-21328.36
2019-02-12T13:30:18.846Z,-21330.06
2019-02-12T13:32:47.112Z,-21359.10
2019-02-12T13:35:15.490Z,-21313.96
2019-02-12T13:37:43.755Z,-21306.48
2019-02-12T13:40:13.068Z,-21318.06
2019-02-12T13:42:41.409Z,-21272.56
2019-02-12T13:45:16.623Z,-21302.11
2019-02-12T13:47:44.910Z,-21295.04
2019-02-12T13:50:13.755Z,-21293.91
2019-02-12T13:52:42.070Z,-21266.34
2019-02-12T13:55:17.439Z,-21326.67
2019-02-12T13:57:44.369Z,-21391.20
2019-02-12T14:00:17.419Z,-21395.55
2019-02-12T14:02:45.756Z,-21408.21
2019-02-12T14:05:16.980Z,-21361.63
2019-02-12T14:07:45.230Z,-21382.33
2019-02-12T14:10:13.505Z,-21349.80
2019-02-12T14:12:41.801Z,-21292.07
2019-02-12T14:15:12.393Z,-21282.46
2019-02-12T14:17:40.657Z,-21353.46
2019-02-12T14:20:14.445Z,-21354.59
2019-02-12T14:22:42.705Z,-21356.42
2019-02-12T14:25:15.225Z,-21355.29
2019-02-12T14:27:43.508Z,-21386.55
2019-02-12T14:30:17.904Z,-21345.14
2019-02-12T14:32:46.140Z,-21368.53
2019-02-12T14:35:14.422Z,-21366.70
2019-02-12T14:37:42.722Z,-21305.21
2019-02-12T14:40:13.205Z,-21311.14
2019-02-12T14:42:41.457Z,-21317.92
2019-02-12T14:45:15.532Z,-21325.12
2019-02-12T14:47:43.935Z,-21319.19
2019-02-12T14:50:14.088Z,-21320.04
2019-02-12T14:52:42.370Z,-21310.01
2019-02-12T14:55:10.699Z,-21322.44
2019-02-12T14:57:38.974Z,-21314.39
2019-02-12T15:00:16.094Z,-21292.50
2019-02-12T15:02:44.357Z,-21285.71
2019-02-12T15:05:12.715Z,-21275.11
2019-02-12T15:07:41.045Z,-21291.79
2019-02-12T15:10:11.481Z,-21287.98
2019-02-12T15:12:39.772Z,-21294.33
2019-02-12T15:15:09.758Z,-21261.81
2019-02-12T15:17:38.061Z,-21288.26
2019-02-12T15:20:13.242Z,-21311.85
2019-02-12T15:22:41.607Z,-21293.34
2019-02-12T15:25:11.526Z,-21279.21
2019-02-12T15:27:39.802Z,-21282.18
2019-02-12T15:30:11.504Z,-21277.51
2019-02-12T15:32:39.792Z,-21271.43
2019-02-12T15:35:09.420Z,-21293.34
2019-02-12T15:37:37.695Z,-21298.86
2019-02-12T15:40:14.981Z,-21286.56
2019-02-12T15:43:05.628Z,-21274.12
2019-02-12T15:48:27.478Z,-21298.29
2019-02-12T15:51:03.152Z,-21299.56
2019-02-12T15:53:37.161Z,-21298.71
2019-02-12T15:56:12.848Z,-21291.37
2019-02-12T15:58:51.644Z,-21289.67
2019-02-12T16:04:50.198Z,-21299.00
2019-02-12T16:10:34.790Z,-21292.36
2019-02-12T16:13:28.973Z,-21281.33
2019-02-12T16:16:05.717Z,-21303.66
2019-02-12T16:18:41.113Z,-21316.50
2019-02-12T16:21:23.003Z,-21315.80
2019-02-12T16:23:54.447Z,-21311.14
2019-02-12T16:26:27.417Z,-21292.78
2019-02-12T16:29:03.656Z,-21286.98
2019-02-12T16:31:46.776Z,-21309.30
2019-02-12T16:34:29.731Z,-21322.16
2019-02-12T16:37:07.211Z,-21315.23
2019-02-12T16:42:29.848Z,-21294.05
2019-02-12T16:48:02.373Z,-21315.09
2019-02-12T16:50:34.296Z,-21310.15
2019-02-12T16:53:07.347Z,-21313.12
2019-02-12T16:55:35.683Z,-21299.56
2019-02-12T16:58:04.845Z,-21296.88
2019-02-12T17:00:33.217Z,-21294.90
2019-02-12T17:03:01.504Z,-21301.26
2019-02-12T17:05:32.382Z,-21311.71
2019-02-12T17:08:00.687Z,-21277.93
2019-02-12T17:10:28.959Z,-21286.84
2019-02-12T17:12:57.232Z,-21304.08
2019-02-12T17:15:25.507Z,-21288.26
2019-02-12T17:17:56.264Z,-21300.69
2019-02-12T17:20:25.117Z,-21297.02
2019-02-12T17:22:53.392Z,-21254.59
2019-02-12T17:25:21.674Z,-21231.08
2019-02-12T17:27:50.942Z,-21254.17
2019-02-12T17:30:19.304Z,-21252.04
2019-02-12T17:32:47.630Z,-21263.51
2019-02-12T17:35:15.902Z,-21249.21
2019-02-12T17:37:44.165Z,-21301.12
2019-02-12T17:40:17.123Z,-21269.17
2019-02-12T17:42:48.537Z,-21246.95
2019-02-12T17:45:19.930Z,-21257.71
2019-02-12T17:47:48.636Z,-21246.66
2019-02-12T17:50:19.844Z,-21241.71
2019-02-12T17:52:48.559Z,-21239.02
2019-02-12T17:55:20.292Z,-21240.57
2019-02-12T17:57:50.422Z,-21239.44
2019-02-12T18:00:41.519Z,-21246.38
2019-02-12T18:03:15.572Z,-21233.07
2019-02-12T18:05:50.285Z,-21247.37
2019-02-12T18:08:30.481Z,-21223.01
2019-02-12T18:11:05.085Z,-21235.90
2019-02-12T18:13:38.275Z,-21242.70
2019-02-12T18:16:10.522Z,-21266.20
2019-02-12T18:18:38.929Z,-21235.05
2019-02-12T18:21:07.345Z,-21241.28
2019-02-12T18:23:52.889Z,-21242.13
2019-02-12T18:26:24.358Z,-21237.46
2019-02-12T18:28:56.266Z,-21254.45
2019-02-12T18:31:29.927Z,-21239.02
2019-02-12T18:34:02.898Z,-21232.50
2019-02-12T18:36:36.499Z,-21228.39
2019-02-12T18:39:06.254Z,-21250.34
2019-02-12T18:41:37.770Z,-21268.18
2019-02-12T18:44:06.077Z,-21256.86
2019-02-12T18:46:44.893Z,-21258.98
2019-02-12T18:49:13.311Z,-21241.14
2019-02-12T18:51:41.926Z,-21248.36
2019-02-12T18:54:10.932Z,-21237.60
2019-02-12T18:56:44.312Z,-21242.27
2019-02-12T18:59:12.897Z,-21247.37
2019-02-12T19:01:41.630Z,-21242.27
2019-02-12T19:04:10.061Z,-21241.00
2019-02-12T19:06:44.151Z,-21237.32
2019-02-12T19:09:14.534Z,-21243.55
2019-02-12T19:11:52.687Z,-21236.33
2019-02-12T19:14:13.200Z,-21241.85
2019-02-12T19:16:42.808Z,-21251.47
2019-02-12T19:19:11.377Z,-21234.91
2019-02-12T19:21:39.851Z,-21245.67
2019-02-12T19:24:08.287Z,-21254.17
2019-02-12T19:26:36.572Z,-21254.31
2019-02-12T19:29:05.112Z,-21237.89
2019-02-12T19:31:33.577Z,-21240.01
2019-02-12T19:34:02.043Z,-21226.27
2019-02-12T19:36:31.850Z,-21227.54
2019-02-12T19:39:00.818Z,-21232.36
2019-02-12T19:41:29.365Z,-21227.26
2019-02-12T19:43:57.837Z,-21211.80
2019-02-12T19:46:27.849Z,-21199.04
2019-02-12T19:49:01.429Z,-21201.59
2019-02-12T19:51:29.808Z,-21201.73
2019-02-12T19:53:58.251Z,-21208.40
2019-02-12T19:56:27.507Z,-21192.37
2019-02-12T19:58:55.926Z,-21195.21
2019-02-12T20:01:24.299Z,-21200.18
2019-02-12T20:03:53.509Z,-21172.63
2019-02-12T20:06:22.883Z,-21168.80
2019-02-12T20:08:51.915Z,-21185.84
2019-02-12T20:11:20.447Z,-21198.47
2019-02-12T20:13:48.801Z,-21205.85
2019-02-12T20:16:18.931Z,-21205.85
2019-02-12T20:18:49.667Z,-21197.91
2019-02-12T20:21:18.034Z,-21192.09
2019-02-12T20:23:46.616Z,-21189.11
2019-02-12T20:26:22.415Z,-21175.19
2019-02-12T20:28:51.428Z,-21184.99
2019-02-12T20:31:23.191Z,-21172.49
2019-02-12T20:33:57.176Z,-21151.32
2019-02-12T20:36:27.276Z,-21187.97
2019-02-12T20:39:05.480Z,-21178.03
2019-02-12T20:41:40.703Z,-21186.70
2019-02-12T20:44:09.924Z,-21202.59
2019-02-12T20:46:40.196Z,-21191.52
2019-02-12T20:49:11.389Z,-21177.18
2019-02-12T20:51:43.076Z,-21173.48
2019-02-12T20:57:26.227Z,-21173.63
2019-02-12T21:00:09.373Z,-21179.30
2019-02-12T21:02:42.583Z,-21175.47
2019-02-12T21:05:13.782Z,-21160.84
2019-02-12T21:08:02.740Z,-21172.35
2019-02-12T21:10:45.023Z,-21183.86
2019-02-12T21:13:18.050Z,-21177.04
2019-02-12T21:15:52.128Z,-21192.23
2019-02-12T21:18:33.499Z,-21149.33
2019-02-12T21:21:07.888Z,-21177.46
2019-02-12T21:23:50.126Z,-21170.07
2019-02-12T21:26:39.287Z,-21142.36
2019-02-12T21:29:09.515Z,-21185.13
2019-02-12T21:31:42.646Z,-21196.77
2019-02-12T21:34:15.685Z,-21190.10
2019-02-12T21:39:36.303Z,-21196.06
2019-02-12T21:42:12.443Z,-21147.48
2019-02-12T21:44:51.325Z,-21192.51
2019-02-12T21:49:13.795Z,-21188.26
2019-02-12T21:50:11.806Z,-21169.37
2019-02-12T21:52:58.104Z,-21213.22
2019-02-12T21:55:34.621Z,-21204.57
2019-02-12T21:58:17.596Z,-21212.80
2019-02-12T22:01:11.265Z,-21194.50
2019-02-12T22:04:00.415Z,-21193.65
2019-02-12T22:09:56.937Z,-21203.86
2019-02-12T22:12:30.792Z,-21183.43
2019-02-12T22:15:00.903Z,-21218.32
2019-02-12T22:17:36.866Z,-21173.20
2019-02-12T22:23:02.039Z,-21209.25
2019-02-12T22:25:45.771Z,-21203.86
2019-02-12T22:28:14.520Z,-21205.14
2019-02-12T22:30:51.389Z,-21197.62
2019-02-12T22:33:36.097Z,-21190.66
2019-02-12T22:36:14.121Z,-21184.71
2019-02-12T22:39:04.863Z,-21192.80
2019-02-12T22:41:42.293Z,-21185.55
2019-02-12T22:44:21.568Z,-21185.13
2019-02-12T22:47:28.985Z,-21178.31
2019-02-12T22:56:31.087Z,-21172.63
2019-02-12T22:59:05.578Z,-21200.32
2019-02-12T23:07:55.989Z,-21202.02
2019-02-12T23:10:39.427Z,-21183.29
2019-02-12T23:13:17.843Z,-21208.83
2019-02-12T23:15:49.277Z,-21209.11
2019-02-12T23:18:27.212Z,-21187.40
2019-02-12T23:21:15.683Z,-21206.70
2019-02-12T23:24:17.292Z,-21202.30
2019-02-12T23:30:07.706Z,-21170.79
2019-02-12T23:33:03.289Z,-21175.75
2019-02-12T23:35:47.469Z,-21192.94
2019-02-12T23:38:18.927Z,-21202.73
2019-02-12T23:41:19.550Z,-21212.51
2019-02-12T23:44:17.087Z,-21217.76
2019-02-12T23:47:04.501Z,-21227.26
2019-02-12T23:50:19.473Z,-21211.09
2019-02-12T23:53:21.241Z,-21200.32
